sensor_id;sensor_type;location;lat;lon;timestamp;P1;durP1;ratioP1;P2;durP2;ratioP2
69937;SDS011;57248;47.320;15.998;2023-11-19T00:00:56;5.40;;;0.63;;
69937;SDS011;57248;47.320;15.998;2023-11-19T00:03:28;4.32;;;0.95;;
69937;SDS011;57248;47.320;15.998;2023-11-19T00:06:01;2.53;;;0.40;;
69937;SDS011;57248;47.320;15.998;2023-11-19T00:08:33;4.88;;;0.98;;
69937;SDS011;57248;47.320;15.998;2023-11-19T00:11:12;2.72;;;0.43;;
69937;SDS011;57248;47.320;15.998;2023-11-19T00:13:47;2.95;;;1.13;;
69937;SDS011;57248;47.320;15.998;2023-11-19T00:16:26;2.03;;;0.35;;
69937;SDS011;57248;47.320;15.998;2023-11-19T00:18:58;3.80;;;0.60;;
69937;SDS011;57248;47.320;15.998;2023-11-19T00:21:31;3.25;;;0.80;;
69937;SDS011;57248;47.320;15.998;2023-11-19T00:24:04;4.05;;;1.23;;
69937;SDS011;57248;47.320;15.998;2023-11-19T00:26:38;4.65;;;1.08;;
69937;SDS011;57248;47.320;15.998;2023-11-19T00:29:11;2.83;;;0.80;;
69937;SDS011;57248;47.320;15.998;2023-11-19T00:31:45;4.40;;;1.13;;
69937;SDS011;57248;47.320;15.998;2023-11-19T00:34:18;1.95;;;0.77;;
69937;SDS011;57248;47.320;15.998;2023-11-19T00:36:52;4.82;;;1.08;;
69937;SDS011;57248;47.320;15.998;2023-11-19T00:39:24;1.92;;;0.63;;
69937;SDS011;57248;47.320;15.998;2023-11-19T00:41:56;1.02;;;0.40;;
69937;SDS011;57248;47.320;15.998;2023-11-19T00:44:28;0.90;;;0.20;;
69937;SDS011;57248;47.320;15.998;2023-11-19T00:47:00;0.95;;;0.10;;
69937;SDS011;57248;47.320;15.998;2023-11-19T00:49:32;1.88;;;0.52;;
69937;SDS011;57248;47.320;15.998;2023-11-19T00:52:04;2.03;;;0.65;;
69937;SDS011;57248;47.320;15.998;2023-11-19T00:54:38;2.28;;;0.45;;
69937;SDS011;57248;47.320;15.998;2023-11-19T00:57:10;1.37;;;0.37;;
69937;SDS011;57248;47.320;15.998;2023-11-19T00:59:42;1.17;;;0.20;;
69937;SDS011;57248;47.320;15.998;2023-11-19T01:02:14;3.40;;;0.80;;
69937;SDS011;57248;47.320;15.998;2023-11-19T01:04:46;1.60;;;0.30;;
69937;SDS011;57248;47.320;15.998;2023-11-19T01:07:19;1.13;;;0.28;;
69937;SDS011;57248;47.320;15.998;2023-11-19T01:09:53;1.40;;;0.43;;
69937;SDS011;57248;47.320;15.998;2023-11-19T01:12:25;2.83;;;0.70;;
69937;SDS011;57248;47.320;15.998;2023-11-19T01:15:05;4.80;;;0.43;;
69937;SDS011;57248;47.320;15.998;2023-11-19T01:17:38;0.80;;;0.25;;
69937;SDS011;57248;47.320;15.998;2023-11-19T01:20:12;2.25;;;0.50;;
69937;SDS011;57248;47.320;15.998;2023-11-19T01:22:45;3.07;;;0.40;;
69937;SDS011;57248;47.320;15.998;2023-11-19T01:25:17;2.13;;;0.17;;
69937;SDS011;57248;47.320;15.998;2023-11-19T01:27:44;1.08;;;0.15;;
69937;SDS011;57248;47.320;15.998;2023-11-19T01:30:16;2.35;;;0.47;;
69937;SDS011;57248;47.320;15.998;2023-11-19T01:32:42;2.10;;;0.60;;
69937;SDS011;57248;47.320;15.998;2023-11-19T01:35:14;2.22;;;0.40;;
69937;SDS011;57248;47.320;15.998;2023-11-19T01:37:46;0.60;;;0.20;;
69937;SDS011;57248;47.320;15.998;2023-11-19T01:40:21;4.30;;;1.13;;
69937;SDS011;57248;47.320;15.998;2023-11-19T01:42:53;1.43;;;0.30;;
69937;SDS011;57248;47.320;15.998;2023-11-19T01:45:30;2.42;;;0.50;;
69937;SDS011;57248;47.320;15.998;2023-11-19T01:48:03;2.58;;;0.73;;
69937;SDS011;57248;47.320;15.998;2023-11-19T01:50:35;2.50;;;1.05;;
69937;SDS011;57248;47.320;15.998;2023-11-19T01:53:07;1.98;;;0.60;;
69937;SDS011;57248;47.320;15.998;2023-11-19T01:55:39;5.70;;;0.47;;
69937;SDS011;57248;47.320;15.998;2023-11-19T01:58:05;1.02;;;0.30;;
69937;SDS011;57248;47.320;15.998;2023-11-19T02:00:39;1.48;;;0.40;;
69937;SDS011;57248;47.320;15.998;2023-11-19T02:03:12;14.00;;;0.43;;
69937;SDS011;57248;47.320;15.998;2023-11-19T02:05:44;3.50;;;0.40;;
69937;SDS011;57248;47.320;15.998;2023-11-19T02:08:20;1.63;;;0.30;;
69937;SDS011;57248;47.320;15.998;2023-11-19T02:10:59;1.23;;;0.52;;
69937;SDS011;57248;47.320;15.998;2023-11-19T02:13:40;3.63;;;0.60;;
69937;SDS011;57248;47.320;15.998;2023-11-19T02:16:12;4.03;;;1.15;;
69937;SDS011;57248;47.320;15.998;2023-11-19T02:18:44;2.42;;;0.40;;
69937;SDS011;57248;47.320;15.998;2023-11-19T02:21:16;1.23;;;0.53;;
69937;SDS011;57248;47.320;15.998;2023-11-19T02:23:49;3.03;;;0.95;;
69937;SDS011;57248;47.320;15.998;2023-11-19T02:29:02;1.77;;;0.30;;
69937;SDS011;57248;47.320;15.998;2023-11-19T02:31:34;2.38;;;0.73;;
69937;SDS011;57248;47.320;15.998;2023-11-19T02:34:06;1.13;;;0.40;;
69937;SDS011;57248;47.320;15.998;2023-11-19T02:36:32;2.15;;;0.47;;
69937;SDS011;57248;47.320;15.998;2023-11-19T02:39:04;2.05;;;0.50;;
69937;SDS011;57248;47.320;15.998;2023-11-19T02:41:41;1.03;;;0.10;;
69937;SDS011;57248;47.320;15.998;2023-11-19T02:44:13;2.78;;;0.82;;
69937;SDS011;57248;47.320;15.998;2023-11-19T02:46:45;1.60;;;0.50;;
69937;SDS011;57248;47.320;15.998;2023-11-19T02:49:19;1.58;;;0.38;;
69937;SDS011;57248;47.320;15.998;2023-11-19T02:51:52;3.65;;;0.82;;
69937;SDS011;57248;47.320;15.998;2023-11-19T02:54:24;2.37;;;0.87;;
69937;SDS011;57248;47.320;15.998;2023-11-19T02:56:58;2.33;;;0.70;;
69937;SDS011;57248;47.320;15.998;2023-11-19T02:59:33;2.78;;;0.63;;
69937;SDS011;57248;47.320;15.998;2023-11-19T03:02:10;1.63;;;0.35;;
69937;SDS011;57248;47.320;15.998;2023-11-19T03:04:43;1.77;;;0.17;;
69937;SDS011;57248;47.320;15.998;2023-11-19T03:07:17;4.17;;;0.90;;
69937;SDS011;57248;47.320;15.998;2023-11-19T03:09:49;2.70;;;0.60;;
69937;SDS011;57248;47.320;15.998;2023-11-19T03:12:21;1.73;;;0.45;;
69937;SDS011;57248;47.320;15.998;2023-11-19T03:14:54;1.63;;;0.35;;
69937;SDS011;57248;47.320;15.998;2023-11-19T03:17:26;5.40;;;1.02;;
69937;SDS011;57248;47.320;15.998;2023-11-19T03:19:58;4.20;;;0.90;;
69937;SDS011;57248;47.320;15.998;2023-11-19T03:22:30;3.00;;;0.75;;
69937;SDS011;57248;47.320;15.998;2023-11-19T03:24:56;3.90;;;1.03;;
69937;SDS011;57248;47.320;15.998;2023-11-19T03:27:28;1.42;;;0.15;;
69937;SDS011;57248;47.320;15.998;2023-11-19T03:30:00;3.05;;;0.70;;
69937;SDS011;57248;47.320;15.998;2023-11-19T03:32:33;2.10;;;0.32;;
69937;SDS011;57248;47.320;15.998;2023-11-19T03:35:06;4.55;;;0.57;;
69937;SDS011;57248;47.320;15.998;2023-11-19T03:37:43;3.20;;;0.60;;
69937;SDS011;57248;47.320;15.998;2023-11-19T03:40:15;1.17;;;0.35;;
69937;SDS011;57248;47.320;15.998;2023-11-19T03:42:47;1.73;;;0.57;;
69937;SDS011;57248;47.320;15.998;2023-11-19T03:45:19;2.40;;;0.47;;
69937;SDS011;57248;47.320;15.998;2023-11-19T03:47:45;2.80;;;0.77;;
69937;SDS011;57248;47.320;15.998;2023-11-19T03:50:16;3.50;;;0.80;;
69937;SDS011;57248;47.320;15.998;2023-11-19T03:52:51;1.50;;;0.50;;
69937;SDS011;57248;47.320;15.998;2023-11-19T03:55:24;1.97;;;0.40;;
69937;SDS011;57248;47.320;15.998;2023-11-19T03:57:56;2.03;;;0.38;;
69937;SDS011;57248;47.320;15.998;2023-11-19T04:00:28;2.30;;;1.00;;
69937;SDS011;57248;47.320;15.998;2023-11-19T04:03:00;3.30;;;0.47;;
69937;SDS011;57248;47.320;15.998;2023-11-19T04:05:32;4.93;;;0.95;;
69937;SDS011;57248;47.320;15.998;2023-11-19T04:08:04;2.23;;;0.90;;
69937;SDS011;57248;47.320;15.998;2023-11-19T04:10:44;2.90;;;0.95;;
69937;SDS011;57248;47.320;15.998;2023-11-19T04:13:16;3.03;;;0.95;;
69937;SDS011;57248;47.320;15.998;2023-11-19T04:15:49;2.80;;;0.60;;
69937;SDS011;57248;47.320;15.998;2023-11-19T04:18:21;2.22;;;0.75;;
69937;SDS011;57248;47.320;15.998;2023-11-19T04:20:53;3.90;;;0.43;;
69937;SDS011;57248;47.320;15.998;2023-11-19T04:23:25;3.65;;;1.15;;
69937;SDS011;57248;47.320;15.998;2023-11-19T04:25:57;1.38;;;0.52;;
69937;SDS011;57248;47.320;15.998;2023-11-19T04:28:30;2.05;;;0.30;;
69937;SDS011;57248;47.320;15.998;2023-11-19T04:31:02;1.70;;;0.40;;
69937;SDS011;57248;47.320;15.998;2023-11-19T04:33:35;3.03;;;1.10;;
69937;SDS011;57248;47.320;15.998;2023-11-19T04:36:07;2.80;;;0.55;;
69937;SDS011;57248;47.320;15.998;2023-11-19T04:38:40;3.97;;;0.55;;
69937;SDS011;57248;47.320;15.998;2023-11-19T04:41:12;3.85;;;0.88;;
69937;SDS011;57248;47.320;15.998;2023-11-19T04:43:45;3.00;;;1.05;;
69937;SDS011;57248;47.320;15.998;2023-11-19T04:46:17;3.80;;;0.73;;
69937;SDS011;57248;47.320;15.998;2023-11-19T04:48:50;6.22;;;0.75;;
69937;SDS011;57248;47.320;15.998;2023-11-19T04:51:22;2.22;;;0.65;;
69937;SDS011;57248;47.320;15.998;2023-11-19T04:53:54;4.50;;;1.05;;
69937;SDS011;57248;47.320;15.998;2023-11-19T04:56:26;1.17;;;0.28;;
69937;SDS011;57248;47.320;15.998;2023-11-19T04:58:58;1.93;;;0.57;;
69937;SDS011;57248;47.320;15.998;2023-11-19T05:01:30;1.30;;;0.32;;
69937;SDS011;57248;47.320;15.998;2023-11-19T05:04:03;3.55;;;0.85;;
69937;SDS011;57248;47.320;15.998;2023-11-19T05:06:35;2.80;;;1.00;;
69937;SDS011;57248;47.320;15.998;2023-11-19T05:09:07;2.92;;;0.52;;
69937;SDS011;57248;47.320;15.998;2023-11-19T05:11:39;2.17;;;0.73;;
69937;SDS011;57248;47.320;15.998;2023-11-19T05:14:25;2.85;;;1.25;;
69937;SDS011;57248;47.320;15.998;2023-11-19T05:16:57;4.68;;;1.23;;
69937;SDS011;57248;47.320;15.998;2023-11-19T05:19:29;4.90;;;1.25;;
69937;SDS011;57248;47.320;15.998;2023-11-19T05:22:01;4.25;;;0.52;;
69937;SDS011;57248;47.320;15.998;2023-11-19T05:24:33;2.43;;;0.67;;
69937;SDS011;57248;47.320;15.998;2023-11-19T05:27:05;1.77;;;0.50;;
69937;SDS011;57248;47.320;15.998;2023-11-19T05:29:38;3.22;;;0.38;;
69937;SDS011;57248;47.320;15.998;2023-11-19T05:32:10;2.15;;;0.40;;
69937;SDS011;57248;47.320;15.998;2023-11-19T05:34:50;6.53;;;0.60;;
69937;SDS011;57248;47.320;15.998;2023-11-19T05:37:22;1.70;;;0.50;;
69937;SDS011;57248;47.320;15.998;2023-11-19T05:39:54;3.42;;;1.23;;
69937;SDS011;57248;47.320;15.998;2023-11-19T05:42:26;2.75;;;0.60;;
69937;SDS011;57248;47.320;15.998;2023-11-19T05:44:58;2.92;;;0.75;;
69937;SDS011;57248;47.320;15.998;2023-11-19T05:47:30;5.28;;;0.52;;
69937;SDS011;57248;47.320;15.998;2023-11-19T05:50:02;3.73;;;1.50;;
69937;SDS011;57248;47.320;15.998;2023-11-19T05:52:41;2.30;;;0.85;;
69937;SDS011;57248;47.320;15.998;2023-11-19T05:55:13;2.72;;;0.68;;
69937;SDS011;57248;47.320;15.998;2023-11-19T05:57:45;1.67;;;0.75;;
69937;SDS011;57248;47.320;15.998;2023-11-19T06:00:11;4.30;;;0.80;;
69937;SDS011;57248;47.320;15.998;2023-11-19T06:02:44;4.10;;;0.50;;
69937;SDS011;57248;47.320;15.998;2023-11-19T06:05:16;3.60;;;0.77;;
69937;SDS011;57248;47.320;15.998;2023-11-19T06:07:48;2.75;;;0.73;;
69937;SDS011;57248;47.320;15.998;2023-11-19T06:10:21;2.55;;;0.70;;
69937;SDS011;57248;47.320;15.998;2023-11-19T06:13:00;4.57;;;1.60;;
69937;SDS011;57248;47.320;15.998;2023-11-19T06:15:36;5.10;;;1.23;;
69937;SDS011;57248;47.320;15.998;2023-11-19T06:18:08;2.63;;;0.40;;
69937;SDS011;57248;47.320;15.998;2023-11-19T06:20:41;1.67;;;0.45;;
69937;SDS011;57248;47.320;15.998;2023-11-19T06:23:07;2.63;;;0.60;;
69937;SDS011;57248;47.320;15.998;2023-11-19T06:25:39;2.03;;;0.60;;
69937;SDS011;57248;47.320;15.998;2023-11-19T06:28:12;1.33;;;0.28;;
69937;SDS011;57248;47.320;15.998;2023-11-19T06:30:44;3.28;;;0.98;;
69937;SDS011;57248;47.320;15.998;2023-11-19T06:33:17;1.50;;;0.50;;
69937;SDS011;57248;47.320;15.998;2023-11-19T06:35:51;2.38;;;0.63;;
69937;SDS011;57248;47.320;15.998;2023-11-19T06:38:23;3.63;;;1.15;;
69937;SDS011;57248;47.320;15.998;2023-11-19T06:40:56;2.35;;;0.77;;
69937;SDS011;57248;47.320;15.998;2023-11-19T06:43:28;3.30;;;0.88;;
69937;SDS011;57248;47.320;15.998;2023-11-19T06:46:00;3.50;;;0.57;;
69937;SDS011;57248;47.320;15.998;2023-11-19T06:48:33;3.75;;;0.98;;
69937;SDS011;57248;47.320;15.998;2023-11-19T06:50:59;10.83;;;0.60;;
69937;SDS011;57248;47.320;15.998;2023-11-19T06:53:36;2.47;;;0.57;;
69937;SDS011;57248;47.320;15.998;2023-11-19T06:56:19;3.72;;;0.60;;
69937;SDS011;57248;47.320;15.998;2023-11-19T06:58:55;3.50;;;1.13;;
69937;SDS011;57248;47.320;15.998;2023-11-19T07:01:27;3.20;;;1.15;;
69937;SDS011;57248;47.320;15.998;2023-11-19T07:03:59;3.03;;;0.83;;
69937;SDS011;57248;47.320;15.998;2023-11-19T07:06:33;3.35;;;1.08;;
69937;SDS011;57248;47.320;15.998;2023-11-19T07:09:06;2.47;;;0.68;;
69937;SDS011;57248;47.320;15.998;2023-11-19T07:11:45;3.15;;;0.65;;
69937;SDS011;57248;47.320;15.998;2023-11-19T07:14:17;3.90;;;0.82;;
69937;SDS011;57248;47.320;15.998;2023-11-19T07:16:56;3.33;;;0.83;;
69937;SDS011;57248;47.320;15.998;2023-11-19T07:19:28;2.08;;;0.57;;
69937;SDS011;57248;47.320;15.998;2023-11-19T07:22:00;3.97;;;1.40;;
69937;SDS011;57248;47.320;15.998;2023-11-19T07:24:32;6.22;;;2.38;;
69937;SDS011;57248;47.320;15.998;2023-11-19T07:27:04;7.70;;;2.53;;
69937;SDS011;57248;47.320;15.998;2023-11-19T07:29:36;8.27;;;3.57;;
69937;SDS011;57248;47.320;15.998;2023-11-19T07:32:08;14.32;;;6.15;;
69937;SDS011;57248;47.320;15.998;2023-11-19T07:34:42;7.05;;;2.35;;
69937;SDS011;57248;47.320;15.998;2023-11-19T07:37:14;14.25;;;4.82;;
69937;SDS011;57248;47.320;15.998;2023-11-19T07:39:48;11.85;;;3.40;;
69937;SDS011;57248;47.320;15.998;2023-11-19T07:42:21;4.80;;;2.33;;
69937;SDS011;57248;47.320;15.998;2023-11-19T07:44:54;3.47;;;0.65;;
69937;SDS011;57248;47.320;15.998;2023-11-19T07:47:27;3.85;;;0.65;;
69937;SDS011;57248;47.320;15.998;2023-11-19T07:50:01;3.10;;;1.25;;
69937;SDS011;57248;47.320;15.998;2023-11-19T07:52:33;4.03;;;0.63;;
69937;SDS011;57248;47.320;15.998;2023-11-19T07:55:06;4.77;;;1.43;;
69937;SDS011;57248;47.320;15.998;2023-11-19T07:57:38;2.22;;;0.85;;
69937;SDS011;57248;47.320;15.998;2023-11-19T08:00:11;3.47;;;0.63;;
69937;SDS011;57248;47.320;15.998;2023-11-19T08:02:44;2.15;;;0.65;;
69937;SDS011;57248;47.320;15.998;2023-11-19T08:05:18;1.80;;;0.50;;
69937;SDS011;57248;47.320;15.998;2023-11-19T08:08:04;7.33;;;1.20;;
69937;SDS011;57248;47.320;15.998;2023-11-19T08:10:36;3.55;;;0.93;;
69937;SDS011;57248;47.320;15.998;2023-11-19T08:13:17;5.50;;;1.23;;
69937;SDS011;57248;47.320;15.998;2023-11-19T08:15:49;2.28;;;0.55;;
69937;SDS011;57248;47.320;15.998;2023-11-19T08:18:21;4.70;;;1.30;;
69937;SDS011;57248;47.320;15.998;2023-11-19T08:20:47;3.63;;;1.00;;
69937;SDS011;57248;47.320;15.998;2023-11-19T08:23:24;4.68;;;0.75;;
69937;SDS011;57248;47.320;15.998;2023-11-19T08:25:57;3.00;;;0.77;;
69937;SDS011;57248;47.320;15.998;2023-11-19T08:28:29;2.70;;;0.75;;
69937;SDS011;57248;47.320;15.998;2023-11-19T08:31:02;1.83;;;0.45;;
69937;SDS011;57248;47.320;15.998;2023-11-19T08:33:37;3.70;;;1.10;;
69937;SDS011;57248;47.320;15.998;2023-11-19T08:36:14;4.43;;;1.23;;
69937;SDS011;57248;47.320;15.998;2023-11-19T08:38:47;2.55;;;0.98;;
69937;SDS011;57248;47.320;15.998;2023-11-19T08:41:20;5.35;;;1.20;;
69937;SDS011;57248;47.320;15.998;2023-11-19T08:43:53;2.67;;;0.90;;
69937;SDS011;57248;47.320;15.998;2023-11-19T08:46:25;6.10;;;1.63;;
69937;SDS011;57248;47.320;15.998;2023-11-19T08:48:57;6.75;;;1.48;;
69937;SDS011;57248;47.320;15.998;2023-11-19T08:51:23;4.45;;;1.10;;
69937;SDS011;57248;47.320;15.998;2023-11-19T08:53:57;4.80;;;0.77;;
69937;SDS011;57248;47.320;15.998;2023-11-19T08:56:29;3.90;;;1.10;;
69937;SDS011;57248;47.320;15.998;2023-11-19T08:58:58;5.00;;;0.90;;
69937;SDS011;57248;47.320;15.998;2023-11-19T09:01:30;4.53;;;1.30;;
69937;SDS011;57248;47.320;15.998;2023-11-19T09:04:03;4.32;;;1.25;;
69937;SDS011;57248;47.320;15.998;2023-11-19T09:06:37;4.87;;;1.10;;
69937;SDS011;57248;47.320;15.998;2023-11-19T09:09:09;8.02;;;1.70;;
69937;SDS011;57248;47.320;15.998;2023-11-19T09:11:43;6.05;;;1.50;;
69937;SDS011;57248;47.320;15.998;2023-11-19T09:14:22;3.83;;;1.27;;
69937;SDS011;57248;47.320;15.998;2023-11-19T09:16:57;5.25;;;1.10;;
69937;SDS011;57248;47.320;15.998;2023-11-19T09:19:32;3.73;;;1.00;;
69937;SDS011;57248;47.320;15.998;2023-11-19T09:22:04;4.82;;;1.65;;
69937;SDS011;57248;47.320;15.998;2023-11-19T09:24:37;4.72;;;1.38;;
69937;SDS011;57248;47.320;15.998;2023-11-19T09:27:09;2.88;;;1.02;;
69937;SDS011;57248;47.320;15.998;2023-11-19T09:29:42;5.55;;;2.08;;
69937;SDS011;57248;47.320;15.998;2023-11-19T09:32:14;3.50;;;1.20;;
69937;SDS011;57248;47.320;15.998;2023-11-19T09:34:47;5.13;;;1.77;;
69937;SDS011;57248;47.320;15.998;2023-11-19T09:37:19;4.95;;;1.38;;
69937;SDS011;57248;47.320;15.998;2023-11-19T09:39:52;5.13;;;1.70;;
69937;SDS011;57248;47.320;15.998;2023-11-19T09:42:24;5.50;;;1.30;;
69937;SDS011;57248;47.320;15.998;2023-11-19T09:44:57;6.70;;;2.57;;
69937;SDS011;57248;47.320;15.998;2023-11-19T09:47:34;4.40;;;1.77;;
69937;SDS011;57248;47.320;15.998;2023-11-19T09:50:07;5.32;;;2.00;;
69937;SDS011;57248;47.320;15.998;2023-11-19T09:52:40;5.55;;;2.00;;
69937;SDS011;57248;47.320;15.998;2023-11-19T09:55:12;5.25;;;2.40;;
69937;SDS011;57248;47.320;15.998;2023-11-19T09:57:45;4.17;;;1.93;;
69937;SDS011;57248;47.320;15.998;2023-11-19T10:00:19;5.53;;;1.95;;
69937;SDS011;57248;47.320;15.998;2023-11-19T10:02:46;6.95;;;2.25;;
69937;SDS011;57248;47.320;15.998;2023-11-19T10:05:20;8.65;;;1.98;;
69937;SDS011;57248;47.320;15.998;2023-11-19T10:07:54;5.60;;;2.13;;
69937;SDS011;57248;47.320;15.998;2023-11-19T10:10:28;5.67;;;2.10;;
69937;SDS011;57248;47.320;15.998;2023-11-19T10:13:00;5.65;;;2.00;;
69937;SDS011;57248;47.320;15.998;2023-11-19T10:15:39;6.15;;;1.95;;
69937;SDS011;57248;47.320;15.998;2023-11-19T10:18:11;4.45;;;1.48;;
69937;SDS011;57248;47.320;15.998;2023-11-19T10:20:45;5.78;;;1.77;;
69937;SDS011;57248;47.320;15.998;2023-11-19T10:23:19;4.93;;;2.10;;
69937;SDS011;57248;47.320;15.998;2023-11-19T10:25:52;6.63;;;2.10;;
69937;SDS011;57248;47.320;15.998;2023-11-19T10:28:24;7.63;;;2.47;;
69937;SDS011;57248;47.320;15.998;2023-11-19T10:30:56;5.75;;;1.83;;
69937;SDS011;57248;47.320;15.998;2023-11-19T10:33:29;6.60;;;1.95;;
69937;SDS011;57248;47.320;15.998;2023-11-19T10:36:01;7.77;;;2.47;;
69937;SDS011;57248;47.320;15.998;2023-11-19T10:38:33;6.68;;;2.55;;
69937;SDS011;57248;47.320;15.998;2023-11-19T10:41:05;7.85;;;2.53;;
69937;SDS011;57248;47.320;15.998;2023-11-19T10:43:44;6.20;;;2.50;;
69937;SDS011;57248;47.320;15.998;2023-11-19T10:46:16;6.88;;;2.00;;
69937;SDS011;57248;47.320;15.998;2023-11-19T10:48:46;7.47;;;2.63;;
69937;SDS011;57248;47.320;15.998;2023-11-19T10:51:19;5.25;;;1.75;;
69937;SDS011;57248;47.320;15.998;2023-11-19T10:53:56;6.40;;;2.03;;
69937;SDS011;57248;47.320;15.998;2023-11-19T10:56:39;6.38;;;1.95;;
69937;SDS011;57248;47.320;15.998;2023-11-19T10:59:09;5.47;;;2.05;;
69937;SDS011;57248;47.320;15.998;2023-11-19T11:01:43;6.23;;;1.90;;
69937;SDS011;57248;47.320;15.998;2023-11-19T11:04:19;6.25;;;2.30;;
69937;SDS011;57248;47.320;15.998;2023-11-19T11:06:56;5.50;;;2.33;;
69937;SDS011;57248;47.320;15.998;2023-11-19T11:09:30;5.63;;;2.42;;
69937;SDS011;57248;47.320;15.998;2023-11-19T11:11:57;7.22;;;2.42;;
69937;SDS011;57248;47.320;15.998;2023-11-19T11:14:37;6.07;;;2.33;;
69937;SDS011;57248;47.320;15.998;2023-11-19T11:17:11;7.00;;;2.72;;
69937;SDS011;57248;47.320;15.998;2023-11-19T11:19:45;7.28;;;3.00;;
69937;SDS011;57248;47.320;15.998;2023-11-19T11:22:17;7.43;;;2.72;;
69937;SDS011;57248;47.320;15.998;2023-11-19T11:28:18;7.90;;;3.40;;
69937;SDS011;57248;47.320;15.998;2023-11-19T11:33:26;6.30;;;2.88;;
69937;SDS011;57248;47.320;15.998;2023-11-19T11:36:26;6.97;;;3.30;;
69937;SDS011;57248;47.320;15.998;2023-11-19T11:38:59;6.80;;;2.92;;
69937;SDS011;57248;47.320;15.998;2023-11-19T11:41:32;6.87;;;3.20;;
69937;SDS011;57248;47.320;15.998;2023-11-19T11:44:04;6.20;;;3.03;;
69937;SDS011;57248;47.320;15.998;2023-11-19T11:49:09;6.60;;;3.17;;
69937;SDS011;57248;47.320;15.998;2023-11-19T11:57:08;5.93;;;3.10;;
69937;SDS011;57248;47.320;15.998;2023-11-19T12:02:21;6.18;;;2.97;;
69937;SDS011;57248;47.320;15.998;2023-11-19T12:04:54;7.22;;;3.30;;
69937;SDS011;57248;47.320;15.998;2023-11-19T12:07:26;5.57;;;2.70;;
69937;SDS011;57248;47.320;15.998;2023-11-19T12:10:07;5.78;;;3.17;;
69937;SDS011;57248;47.320;15.998;2023-11-19T12:12:41;5.60;;;2.80;;
69937;SDS011;57248;47.320;15.998;2023-11-19T12:15:20;7.95;;;3.55;;
69937;SDS011;57248;47.320;15.998;2023-11-19T12:17:56;6.47;;;3.08;;
69937;SDS011;57248;47.320;15.998;2023-11-19T12:20:31;8.23;;;3.20;;
69937;SDS011;57248;47.320;15.998;2023-11-19T12:23:06;5.72;;;2.85;;
69937;SDS011;57248;47.320;15.998;2023-11-19T12:25:39;6.60;;;3.20;;
69937;SDS011;57248;47.320;15.998;2023-11-19T12:28:12;6.20;;;2.97;;
69937;SDS011;57248;47.320;15.998;2023-11-19T12:30:45;7.68;;;3.28;;
69937;SDS011;57248;47.320;15.998;2023-11-19T12:33:20;5.23;;;2.63;;
69937;SDS011;57248;47.320;15.998;2023-11-19T12:35:52;6.32;;;2.90;;
69937;SDS011;57248;47.320;15.998;2023-11-19T12:38:26;6.10;;;2.60;;
69937;SDS011;57248;47.320;15.998;2023-11-19T12:41:06;5.45;;;2.53;;
69937;SDS011;57248;47.320;15.998;2023-11-19T12:43:38;5.75;;;2.47;;
69937;SDS011;57248;47.320;15.998;2023-11-19T12:48:53;5.50;;;2.55;;
69937;SDS011;57248;47.320;15.998;2023-11-19T12:51:31;5.90;;;2.58;;
69937;SDS011;57248;47.320;15.998;2023-11-19T12:54:04;8.25;;;3.08;;
69937;SDS011;57248;47.320;15.998;2023-11-19T12:56:54;8.07;;;2.88;;
69937;SDS011;57248;47.320;15.998;2023-11-19T12:59:43;7.23;;;2.77;;
69937;SDS011;57248;47.320;15.998;2023-11-19T13:05:28;10.15;;;3.47;;
69937;SDS011;57248;47.320;15.998;2023-11-19T13:08:05;7.88;;;3.33;;
69937;SDS011;57248;47.320;15.998;2023-11-19T13:10:51;8.07;;;2.58;;
69937;SDS011;57248;47.320;15.998;2023-11-19T13:13:25;8.53;;;3.37;;
69937;SDS011;57248;47.320;15.998;2023-11-19T13:16:04;10.05;;;3.33;;
69937;SDS011;57248;47.320;15.998;2023-11-19T13:18:37;7.22;;;2.38;;
69937;SDS011;57248;47.320;15.998;2023-11-19T13:21:03;6.60;;;2.27;;
69937;SDS011;57248;47.320;15.998;2023-11-19T13:23:36;6.45;;;2.45;;
69937;SDS011;57248;47.320;15.998;2023-11-19T13:26:02;9.80;;;1.87;;
69937;SDS011;57248;47.320;15.998;2023-11-19T13:28:35;9.75;;;2.50;;
69937;SDS011;57248;47.320;15.998;2023-11-19T13:31:07;5.03;;;2.13;;
69937;SDS011;57248;47.320;15.998;2023-11-19T13:33:41;4.90;;;1.73;;
69937;SDS011;57248;47.320;15.998;2023-11-19T13:36:13;4.63;;;1.80;;
69937;SDS011;57248;47.320;15.998;2023-11-19T13:38:45;4.90;;;1.90;;
69937;SDS011;57248;47.320;15.998;2023-11-19T13:41:18;8.57;;;1.65;;
69937;SDS011;57248;47.320;15.998;2023-11-19T13:43:51;7.45;;;2.38;;
69937;SDS011;57248;47.320;15.998;2023-11-19T13:46:23;6.15;;;2.50;;
69937;SDS011;57248;47.320;15.998;2023-11-19T13:48:57;6.25;;;2.40;;
69937;SDS011;57248;47.320;15.998;2023-11-19T13:51:28;6.40;;;1.93;;
69937;SDS011;57248;47.320;15.998;2023-11-19T13:54:00;7.00;;;2.42;;
69937;SDS011;57248;47.320;15.998;2023-11-19T13:56:32;5.60;;;1.63;;
69937;SDS011;57248;47.320;15.998;2023-11-19T13:59:04;4.32;;;1.50;;
69937;SDS011;57248;47.320;15.998;2023-11-19T14:01:42;4.55;;;1.42;;
69937;SDS011;57248;47.320;15.998;2023-11-19T14:04:07;5.13;;;1.50;;
69937;SDS011;57248;47.320;15.998;2023-11-19T14:06:44;16.92;;;6.22;;
69937;SDS011;57248;47.320;15.998;2023-11-19T14:09:18;9.93;;;3.20;;
69937;SDS011;57248;47.320;15.998;2023-11-19T14:11:51;7.60;;;2.03;;
69937;SDS011;57248;47.320;15.998;2023-11-19T14:14:23;7.63;;;2.35;;
69937;SDS011;57248;47.320;15.998;2023-11-19T14:16:57;4.45;;;1.45;;
69937;SDS011;57248;47.320;15.998;2023-11-19T14:19:28;8.05;;;3.38;;
69937;SDS011;57248;47.320;15.998;2023-11-19T14:22:02;5.47;;;2.50;;
69937;SDS011;57248;47.320;15.998;2023-11-19T14:24:27;6.82;;;2.38;;
69937;SDS011;57248;47.320;15.998;2023-11-19T14:27:00;6.07;;;2.10;;
69937;SDS011;57248;47.320;15.998;2023-11-19T14:29:32;10.48;;;3.53;;
69937;SDS011;57248;47.320;15.998;2023-11-19T14:32:07;10.87;;;3.47;;
69937;SDS011;57248;47.320;15.998;2023-11-19T14:34:32;11.93;;;3.35;;
69937;SDS011;57248;47.320;15.998;2023-11-19T14:37:04;13.85;;;4.78;;
69937;SDS011;57248;47.320;15.998;2023-11-19T14:39:36;6.93;;;2.17;;
69937;SDS011;57248;47.320;15.998;2023-11-19T14:42:11;7.22;;;2.00;;
69937;SDS011;57248;47.320;15.998;2023-11-19T14:44:43;5.90;;;1.73;;
69937;SDS011;57248;47.320;15.998;2023-11-19T14:47:15;5.25;;;1.60;;
69937;SDS011;57248;47.320;15.998;2023-11-19T14:49:48;5.97;;;2.05;;
69937;SDS011;57248;47.320;15.998;2023-11-19T14:52:14;6.00;;;1.63;;
69937;SDS011;57248;47.320;15.998;2023-11-19T14:54:46;5.83;;;1.70;;
69937;SDS011;57248;47.320;15.998;2023-11-19T14:57:19;4.60;;;1.30;;
69937;SDS011;57248;47.320;15.998;2023-11-19T14:59:52;6.00;;;1.80;;
69937;SDS011;57248;47.320;15.998;2023-11-19T15:02:24;6.63;;;1.50;;
69937;SDS011;57248;47.320;15.998;2023-11-19T15:04:58;6.72;;;1.85;;
69937;SDS011;57248;47.320;15.998;2023-11-19T15:07:29;6.60;;;2.57;;
69937;SDS011;57248;47.320;15.998;2023-11-19T15:10:02;3.63;;;0.90;;
69937;SDS011;57248;47.320;15.998;2023-11-19T15:12:35;5.68;;;2.20;;
69937;SDS011;57248;47.320;15.998;2023-11-19T15:15:27;5.35;;;1.98;;
69937;SDS011;57248;47.320;15.998;2023-11-19T15:17:59;5.85;;;1.98;;
69937;SDS011;57248;47.320;15.998;2023-11-19T15:20:31;5.77;;;2.03;;
69937;SDS011;57248;47.320;15.998;2023-11-19T15:23:03;5.55;;;2.20;;
69937;SDS011;57248;47.320;15.998;2023-11-19T15:25:36;6.97;;;3.03;;
69937;SDS011;57248;47.320;15.998;2023-11-19T15:28:08;6.13;;;2.38;;
69937;SDS011;57248;47.320;15.998;2023-11-19T15:30:41;6.53;;;2.65;;
69937;SDS011;57248;47.320;15.998;2023-11-19T15:33:13;7.70;;;2.70;;